sensor_id;sensor_type;location;lat;lon;timestamp;P1;durP1;ratioP1;P2;durP2;ratioP2
24305;SDS011;12423;48.768;8.850;2022-07-29T00:00:09;7.35;;;4.60;;
24305;SDS011;12423;48.768;8.850;2022-07-29T00:02:11;8.35;;;4.78;;
24305;SDS011;12423;48.768;8.850;2022-07-29T00:04:12;6.35;;;4.70;;
24305;SDS011;12423;48.768;8.850;2022-07-29T00:06:13;5.68;;;4.60;;
24305;SDS011;12423;48.768;8.850;2022-07-29T00:08:15;5.75;;;4.47;;
24305;SDS011;12423;48.768;8.850;2022-07-29T00:10:16;9.20;;;4.68;;
24305;SDS011;12423;48.768;8.850;2022-07-29T00:12:17;5.32;;;3.95;;
24305;SDS011;12423;48.768;8.850;2022-07-29T00:14:18;6.82;;;4.55;;
24305;SDS011;12423;48.768;8.850;2022-07-29T00:16:19;7.15;;;4.60;;
24305;SDS011;12423;48.768;8.850;2022-07-29T00:18:20;6.88;;;4.53;;
24305;SDS011;12423;48.768;8.850;2022-07-29T00:20:21;6.30;;;5.07;;
24305;SDS011;12423;48.768;8.850;2022-07-29T00:22:22;6.65;;;4.13;;
24305;SDS011;12423;48.768;8.850;2022-07-29T00:24:23;6.85;;;4.53;;
24305;SDS011;12423;48.768;8.850;2022-07-29T00:26:24;6.47;;;4.43;;
24305;SDS011;12423;48.768;8.850;2022-07-29T00:28:25;5.80;;;4.80;;
24305;SDS011;12423;48.768;8.850;2022-07-29T00:30:26;6.20;;;5.13;;
24305;SDS011;12423;48.768;8.850;2022-07-29T00:32:27;7.13;;;4.70;;
24305;SDS011;12423;48.768;8.850;2022-07-29T00:34:29;6.10;;;4.70;;
24305;SDS011;12423;48.768;8.850;2022-07-29T00:36:49;6.18;;;4.75;;
24305;SDS011;12423;48.768;8.850;2022-07-29T00:38:50;5.10;;;4.45;;
24305;SDS011;12423;48.768;8.850;2022-07-29T00:40:52;6.40;;;4.88;;
24305;SDS011;12423;48.768;8.850;2022-07-29T00:42:53;5.40;;;4.05;;
24305;SDS011;12423;48.768;8.850;2022-07-29T00:44:54;5.80;;;4.45;;
24305;SDS011;12423;48.768;8.850;2022-07-29T00:46:55;9.35;;;4.78;;
24305;SDS011;12423;48.768;8.850;2022-07-29T00:48:56;6.47;;;4.80;;
24305;SDS011;12423;48.768;8.850;2022-07-29T00:50:58;7.53;;;4.05;;
24305;SDS011;12423;48.768;8.850;2022-07-29T00:53:02;7.75;;;5.05;;
24305;SDS011;12423;48.768;8.850;2022-07-29T00:55:05;7.25;;;4.50;;
24305;SDS011;12423;48.768;8.850;2022-07-29T00:57:08;9.00;;;4.95;;
24305;SDS011;12423;48.768;8.850;2022-07-29T00:59:09;6.45;;;4.38;;
24305;SDS011;12423;48.768;8.850;2022-07-29T01:01:10;5.10;;;4.50;;
24305;SDS011;12423;48.768;8.850;2022-07-29T01:03:11;7.22;;;4.82;;
24305;SDS011;12423;48.768;8.850;2022-07-29T01:05:12;6.28;;;4.85;;
24305;SDS011;12423;48.768;8.850;2022-07-29T01:07:13;6.43;;;5.30;;
24305;SDS011;12423;48.768;8.850;2022-07-29T01:09:15;6.10;;;4.20;;
24305;SDS011;12423;48.768;8.850;2022-07-29T01:11:17;6.25;;;4.00;;
24305;SDS011;12423;48.768;8.850;2022-07-29T01:13:19;6.15;;;4.50;;
24305;SDS011;12423;48.768;8.850;2022-07-29T01:15:22;6.40;;;4.63;;
24305;SDS011;12423;48.768;8.850;2022-07-29T01:17:24;6.03;;;4.18;;
24305;SDS011;12423;48.768;8.850;2022-07-29T01:22:06;6.40;;;4.22;;
24305;SDS011;12423;48.768;8.850;2022-07-29T01:24:44;4.90;;;3.85;;
24305;SDS011;12423;48.768;8.850;2022-07-29T01:29:28;6.68;;;4.18;;
24305;SDS011;12423;48.768;8.850;2022-07-29T01:34:01;9.13;;;4.28;;
24305;SDS011;12423;48.768;8.850;2022-07-29T01:36:07;9.13;;;4.90;;
24305;SDS011;12423;48.768;8.850;2022-07-29T01:38:16;5.82;;;4.45;;
24305;SDS011;12423;48.768;8.850;2022-07-29T01:47:21;4.90;;;3.90;;
24305;SDS011;12423;48.768;8.850;2022-07-29T01:49:27;4.75;;;3.63;;
24305;SDS011;12423;48.768;8.850;2022-07-29T01:51:33;5.10;;;3.47;;
24305;SDS011;12423;48.768;8.850;2022-07-29T01:54:01;7.60;;;3.90;;
24305;SDS011;12423;48.768;8.850;2022-07-29T01:56:20;5.15;;;3.75;;
24305;SDS011;12423;48.768;8.850;2022-07-29T01:58:23;5.63;;;4.07;;
24305;SDS011;12423;48.768;8.850;2022-07-29T02:00:25;5.85;;;4.20;;
24305;SDS011;12423;48.768;8.850;2022-07-29T02:02:28;6.05;;;4.05;;
24305;SDS011;12423;48.768;8.850;2022-07-29T02:04:31;7.22;;;4.35;;
24305;SDS011;12423;48.768;8.850;2022-07-29T02:06:36;8.40;;;4.93;;
24305;SDS011;12423;48.768;8.850;2022-07-29T02:08:38;6.20;;;3.85;;
24305;SDS011;12423;48.768;8.850;2022-07-29T02:10:41;8.30;;;4.00;;
24305;SDS011;12423;48.768;8.850;2022-07-29T02:12:44;7.00;;;4.35;;
24305;SDS011;12423;48.768;8.850;2022-07-29T02:14:49;7.50;;;4.28;;
24305;SDS011;12423;48.768;8.850;2022-07-29T02:16:53;5.70;;;4.30;;
24305;SDS011;12423;48.768;8.850;2022-07-29T02:18:56;7.30;;;4.43;;
24305;SDS011;12423;48.768;8.850;2022-07-29T02:21:00;6.32;;;4.10;;
24305;SDS011;12423;48.768;8.850;2022-07-29T02:23:01;5.03;;;4.20;;
24305;SDS011;12423;48.768;8.850;2022-07-29T02:25:03;6.78;;;4.28;;
24305;SDS011;12423;48.768;8.850;2022-07-29T02:27:05;6.40;;;4.65;;
24305;SDS011;12423;48.768;8.850;2022-07-29T02:29:08;6.40;;;4.28;;
24305;SDS011;12423;48.768;8.850;2022-07-29T02:31:11;5.97;;;3.92;;
24305;SDS011;12423;48.768;8.850;2022-07-29T02:33:14;6.07;;;3.90;;
24305;SDS011;12423;48.768;8.850;2022-07-29T02:35:17;6.15;;;4.20;;
24305;SDS011;12423;48.768;8.850;2022-07-29T02:37:20;6.28;;;4.38;;
24305;SDS011;12423;48.768;8.850;2022-07-29T02:39:22;6.45;;;4.05;;
24305;SDS011;12423;48.768;8.850;2022-07-29T02:41:28;4.72;;;3.80;;
24305;SDS011;12423;48.768;8.850;2022-07-29T02:43:41;5.47;;;3.47;;
24305;SDS011;12423;48.768;8.850;2022-07-29T02:45:45;5.22;;;3.58;;
24305;SDS011;12423;48.768;8.850;2022-07-29T02:47:51;8.00;;;3.85;;
24305;SDS011;12423;48.768;8.850;2022-07-29T02:52:04;5.10;;;3.53;;
24305;SDS011;12423;48.768;8.850;2022-07-29T02:54:13;5.18;;;3.50;;
24305;SDS011;12423;48.768;8.850;2022-07-29T02:56:23;4.63;;;3.45;;
24305;SDS011;12423;48.768;8.850;2022-07-29T02:58:32;5.95;;;4.15;;
24305;SDS011;12423;48.768;8.850;2022-07-29T03:00:37;4.72;;;3.55;;
24305;SDS011;12423;48.768;8.850;2022-07-29T03:02:42;5.32;;;3.25;;
24305;SDS011;12423;48.768;8.850;2022-07-29T03:04:45;3.95;;;3.55;;
24305;SDS011;12423;48.768;8.850;2022-07-29T03:06:49;3.95;;;3.22;;
24305;SDS011;12423;48.768;8.850;2022-07-29T03:08:51;5.28;;;3.38;;
24305;SDS011;12423;48.768;8.850;2022-07-29T03:10:54;5.55;;;3.38;;
24305;SDS011;12423;48.768;8.850;2022-07-29T03:12:55;5.00;;;3.33;;
24305;SDS011;12423;48.768;8.850;2022-07-29T03:14:58;5.13;;;3.28;;
24305;SDS011;12423;48.768;8.850;2022-07-29T03:16:59;4.90;;;3.42;;
24305;SDS011;12423;48.768;8.850;2022-07-29T03:19:00;6.28;;;3.67;;
24305;SDS011;12423;48.768;8.850;2022-07-29T03:21:02;4.95;;;4.03;;
24305;SDS011;12423;48.768;8.850;2022-07-29T03:23:04;5.93;;;3.60;;
24305;SDS011;12423;48.768;8.850;2022-07-29T03:25:08;6.25;;;3.63;;
24305;SDS011;12423;48.768;8.850;2022-07-29T03:27:10;5.60;;;4.00;;
24305;SDS011;12423;48.768;8.850;2022-07-29T03:29:11;5.05;;;4.30;;
24305;SDS011;12423;48.768;8.850;2022-07-29T03:31:12;4.85;;;3.58;;
24305;SDS011;12423;48.768;8.850;2022-07-29T03:33:13;5.93;;;4.07;;
24305;SDS011;12423;48.768;8.850;2022-07-29T03:35:14;7.43;;;4.35;;
24305;SDS011;12423;48.768;8.850;2022-07-29T03:37:16;6.00;;;4.07;;
24305;SDS011;12423;48.768;8.850;2022-07-29T03:39:20;5.30;;;3.92;;
24305;SDS011;12423;48.768;8.850;2022-07-29T03:41:22;6.53;;;3.80;;
24305;SDS011;12423;48.768;8.850;2022-07-29T03:43:24;5.88;;;3.75;;
24305;SDS011;12423;48.768;8.850;2022-07-29T03:45:28;4.80;;;3.63;;
24305;SDS011;12423;48.768;8.850;2022-07-29T03:47:31;5.25;;;4.10;;
24305;SDS011;12423;48.768;8.850;2022-07-29T03:49:35;6.63;;;3.90;;
24305;SDS011;12423;48.768;8.850;2022-07-29T03:51:38;4.97;;;3.67;;
24305;SDS011;12423;48.768;8.850;2022-07-29T03:53:39;6.05;;;3.85;;
24305;SDS011;12423;48.768;8.850;2022-07-29T03:55:41;5.38;;;4.25;;
24305;SDS011;12423;48.768;8.850;2022-07-29T03:57:45;4.78;;;4.03;;
24305;SDS011;12423;48.768;8.850;2022-07-29T03:59:47;4.28;;;3.70;;
24305;SDS011;12423;48.768;8.850;2022-07-29T04:01:49;6.47;;;4.13;;
24305;SDS011;12423;48.768;8.850;2022-07-29T04:03:50;4.95;;;4.03;;
24305;SDS011;12423;48.768;8.850;2022-07-29T04:06:02;5.78;;;3.95;;
24305;SDS011;12423;48.768;8.850;2022-07-29T04:08:06;4.22;;;3.83;;
24305;SDS011;12423;48.768;8.850;2022-07-29T04:10:07;5.18;;;3.78;;
24305;SDS011;12423;48.768;8.850;2022-07-29T04:12:09;5.55;;;4.10;;
24305;SDS011;12423;48.768;8.850;2022-07-29T04:14:10;5.13;;;4.18;;
24305;SDS011;12423;48.768;8.850;2022-07-29T04:16:11;6.03;;;4.22;;
24305;SDS011;12423;48.768;8.850;2022-07-29T04:18:12;5.90;;;4.15;;
24305;SDS011;12423;48.768;8.850;2022-07-29T04:20:13;8.10;;;4.18;;
24305;SDS011;12423;48.768;8.850;2022-07-29T04:22:14;6.78;;;3.92;;
24305;SDS011;12423;48.768;8.850;2022-07-29T04:24:15;5.18;;;4.10;;
24305;SDS011;12423;48.768;8.850;2022-07-29T04:26:17;5.93;;;4.30;;
24305;SDS011;12423;48.768;8.850;2022-07-29T04:28:18;6.25;;;4.65;;
24305;SDS011;12423;48.768;8.850;2022-07-29T04:30:19;7.35;;;4.43;;
24305;SDS011;12423;48.768;8.850;2022-07-29T04:32:20;7.93;;;4.30;;
24305;SDS011;12423;48.768;8.850;2022-07-29T04:34:21;6.05;;;4.18;;
24305;SDS011;12423;48.768;8.850;2022-07-29T04:36:22;8.20;;;4.47;;
24305;SDS011;12423;48.768;8.850;2022-07-29T04:38:23;5.82;;;4.45;;
24305;SDS011;12423;48.768;8.850;2022-07-29T04:40:24;7.20;;;5.15;;
24305;SDS011;12423;48.768;8.850;2022-07-29T04:42:25;6.05;;;4.68;;
24305;SDS011;12423;48.768;8.850;2022-07-29T04:44:26;6.65;;;4.40;;
24305;SDS011;12423;48.768;8.850;2022-07-29T04:46:27;6.40;;;4.65;;
24305;SDS011;12423;48.768;8.850;2022-07-29T04:48:28;5.05;;;4.50;;
24305;SDS011;12423;48.768;8.850;2022-07-29T04:50:29;7.60;;;5.05;;
24305;SDS011;12423;48.768;8.850;2022-07-29T04:52:30;7.03;;;4.95;;
24305;SDS011;12423;48.768;8.850;2022-07-29T04:54:31;8.13;;;4.50;;
24305;SDS011;12423;48.768;8.850;2022-07-29T04:56:33;7.55;;;5.07;;
24305;SDS011;12423;48.768;8.850;2022-07-29T04:58:35;7.13;;;5.03;;
24305;SDS011;12423;48.768;8.850;2022-07-29T05:00:36;7.82;;;4.60;;
24305;SDS011;12423;48.768;8.850;2022-07-29T05:02:37;5.35;;;4.60;;
24305;SDS011;12423;48.768;8.850;2022-07-29T05:04:38;5.68;;;4.80;;
24305;SDS011;12423;48.768;8.850;2022-07-29T05:06:39;6.28;;;4.50;;
24305;SDS011;12423;48.768;8.850;2022-07-29T05:08:40;8.32;;;5.00;;
24305;SDS011;12423;48.768;8.850;2022-07-29T05:10:41;6.97;;;4.22;;
24305;SDS011;12423;48.768;8.850;2022-07-29T05:12:42;5.38;;;4.47;;
24305;SDS011;12423;48.768;8.850;2022-07-29T05:14:43;6.55;;;5.03;;
24305;SDS011;12423;48.768;8.850;2022-07-29T05:16:44;5.43;;;4.47;;
24305;SDS011;12423;48.768;8.850;2022-07-29T05:18:45;6.40;;;4.32;;
24305;SDS011;12423;48.768;8.850;2022-07-29T05:20:46;5.75;;;4.22;;
24305;SDS011;12423;48.768;8.850;2022-07-29T05:22:47;6.05;;;4.53;;
24305;SDS011;12423;48.768;8.850;2022-07-29T05:24:48;6.65;;;4.50;;
24305;SDS011;12423;48.768;8.850;2022-07-29T05:26:49;6.22;;;4.47;;
24305;SDS011;12423;48.768;8.850;2022-07-29T05:28:50;5.68;;;4.45;;
24305;SDS011;12423;48.768;8.850;2022-07-29T05:30:51;7.05;;;4.47;;
24305;SDS011;12423;48.768;8.850;2022-07-29T05:32:52;7.00;;;4.68;;
24305;SDS011;12423;48.768;8.850;2022-07-29T05:34:53;6.70;;;4.88;;
24305;SDS011;12423;48.768;8.850;2022-07-29T05:36:54;6.07;;;4.78;;
24305;SDS011;12423;48.768;8.850;2022-07-29T05:38:55;9.35;;;4.90;;
24305;SDS011;12423;48.768;8.850;2022-07-29T05:40:56;7.15;;;4.10;;
24305;SDS011;12423;48.768;8.850;2022-07-29T05:42:59;6.40;;;4.60;;
24305;SDS011;12423;48.768;8.850;2022-07-29T05:45:00;7.60;;;4.60;;
24305;SDS011;12423;48.768;8.850;2022-07-29T05:47:02;5.63;;;4.32;;
24305;SDS011;12423;48.768;8.850;2022-07-29T05:49:03;5.35;;;4.07;;
24305;SDS011;12423;48.768;8.850;2022-07-29T05:51:04;6.47;;;4.72;;
24305;SDS011;12423;48.768;8.850;2022-07-29T05:53:05;5.75;;;4.05;;
24305;SDS011;12423;48.768;8.850;2022-07-29T05:55:06;7.10;;;4.00;;
24305;SDS011;12423;48.768;8.850;2022-07-29T05:57:07;6.35;;;4.22;;
24305;SDS011;12423;48.768;8.850;2022-07-29T05:59:08;7.82;;;5.20;;
24305;SDS011;12423;48.768;8.850;2022-07-29T06:01:09;5.45;;;4.20;;
24305;SDS011;12423;48.768;8.850;2022-07-29T06:03:10;4.78;;;3.78;;
24305;SDS011;12423;48.768;8.850;2022-07-29T06:05:11;5.50;;;4.30;;
24305;SDS011;12423;48.768;8.850;2022-07-29T06:07:12;7.45;;;4.82;;
24305;SDS011;12423;48.768;8.850;2022-07-29T06:09:13;8.45;;;4.40;;
24305;SDS011;12423;48.768;8.850;2022-07-29T06:11:15;5.72;;;4.22;;
24305;SDS011;12423;48.768;8.850;2022-07-29T06:13:16;6.57;;;4.40;;
24305;SDS011;12423;48.768;8.850;2022-07-29T06:15:17;5.25;;;4.30;;
24305;SDS011;12423;48.768;8.850;2022-07-29T06:17:18;5.47;;;4.07;;
24305;SDS011;12423;48.768;8.850;2022-07-29T06:19:19;7.70;;;4.20;;
24305;SDS011;12423;48.768;8.850;2022-07-29T06:21:20;5.07;;;4.20;;
24305;SDS011;12423;48.768;8.850;2022-07-29T06:23:21;6.55;;;4.35;;
24305;SDS011;12423;48.768;8.850;2022-07-29T06:25:22;7.00;;;4.85;;
24305;SDS011;12423;48.768;8.850;2022-07-29T06:27:23;7.68;;;4.28;;
24305;SDS011;12423;48.768;8.850;2022-07-29T06:29:24;6.45;;;4.47;;
24305;SDS011;12423;48.768;8.850;2022-07-29T06:31:25;6.22;;;4.07;;
24305;SDS011;12423;48.768;8.850;2022-07-29T06:33:26;6.18;;;4.25;;
24305;SDS011;12423;48.768;8.850;2022-07-29T06:35:27;6.35;;;4.20;;
24305;SDS011;12423;48.768;8.850;2022-07-29T06:37:28;5.57;;;4.13;;
24305;SDS011;12423;48.768;8.850;2022-07-29T06:39:29;5.55;;;4.40;;
24305;SDS011;12423;48.768;8.850;2022-07-29T06:41:30;5.38;;;4.00;;
24305;SDS011;12423;48.768;8.850;2022-07-29T06:43:35;6.60;;;4.30;;
24305;SDS011;12423;48.768;8.850;2022-07-29T06:45:41;8.50;;;4.30;;
24305;SDS011;12423;48.768;8.850;2022-07-29T06:47:43;7.28;;;4.70;;
24305;SDS011;12423;48.768;8.850;2022-07-29T06:49:44;9.05;;;4.22;;
24305;SDS011;12423;48.768;8.850;2022-07-29T06:51:45;5.13;;;4.32;;
24305;SDS011;12423;48.768;8.850;2022-07-29T06:53:47;8.23;;;4.30;;
24305;SDS011;12423;48.768;8.850;2022-07-29T06:55:48;5.85;;;4.25;;
24305;SDS011;12423;48.768;8.850;2022-07-29T06:57:49;6.40;;;4.60;;
24305;SDS011;12423;48.768;8.850;2022-07-29T06:59:50;7.85;;;4.10;;
24305;SDS011;12423;48.768;8.850;2022-07-29T07:01:51;6.90;;;4.07;;
24305;SDS011;12423;48.768;8.850;2022-07-29T07:03:52;6.93;;;3.95;;
24305;SDS011;12423;48.768;8.850;2022-07-29T07:05:53;6.10;;;4.20;;
24305;SDS011;12423;48.768;8.850;2022-07-29T07:07:55;8.10;;;4.63;;
24305;SDS011;12423;48.768;8.850;2022-07-29T07:09:56;5.80;;;4.18;;
24305;SDS011;12423;48.768;8.850;2022-07-29T07:11:57;9.00;;;4.18;;
24305;SDS011;12423;48.768;8.850;2022-07-29T07:13:58;6.60;;;4.30;;
24305;SDS011;12423;48.768;8.850;2022-07-29T07:15:59;5.88;;;4.40;;
24305;SDS011;12423;48.768;8.850;2022-07-29T07:18:02;7.88;;;4.10;;
24305;SDS011;12423;48.768;8.850;2022-07-29T07:20:04;4.72;;;4.10;;
24305;SDS011;12423;48.768;8.850;2022-07-29T07:22:06;9.10;;;3.97;;
24305;SDS011;12423;48.768;8.850;2022-07-29T07:24:07;6.97;;;4.53;;
24305;SDS011;12423;48.768;8.850;2022-07-29T07:26:08;6.30;;;3.58;;
24305;SDS011;12423;48.768;8.850;2022-07-29T07:28:09;8.10;;;4.25;;
24305;SDS011;12423;48.768;8.850;2022-07-29T07:30:11;9.82;;;4.28;;
24305;SDS011;12423;48.768;8.850;2022-07-29T07:32:13;6.40;;;3.90;;
24305;SDS011;12423;48.768;8.850;2022-07-29T07:34:16;5.80;;;3.88;;
24305;SDS011;12423;48.768;8.850;2022-07-29T07:36:17;5.63;;;3.80;;
24305;SDS011;12423;48.768;8.850;2022-07-29T07:38:18;6.85;;;3.83;;
24305;SDS011;12423;48.768;8.850;2022-07-29T07:40:19;11.07;;;3.60;;
24305;SDS011;12423;48.768;8.850;2022-07-29T07:42:20;4.55;;;3.35;;
24305;SDS011;12423;48.768;8.850;2022-07-29T07:44:21;5.00;;;3.53;;
24305;SDS011;12423;48.768;8.850;2022-07-29T07:46:22;5.35;;;3.00;;
24305;SDS011;12423;48.768;8.850;2022-07-29T07:48:23;8.15;;;3.45;;
24305;SDS011;12423;48.768;8.850;2022-07-29T07:50:24;5.78;;;3.75;;
24305;SDS011;12423;48.768;8.850;2022-07-29T07:52:25;4.53;;;3.13;;
24305;SDS011;12423;48.768;8.850;2022-07-29T07:54:26;4.82;;;3.60;;
24305;SDS011;12423;48.768;8.850;2022-07-29T07:56:27;4.80;;;3.88;;
24305;SDS011;12423;48.768;8.850;2022-07-29T07:58:28;5.75;;;3.78;;
24305;SDS011;12423;48.768;8.850;2022-07-29T08:00:29;5.68;;;3.35;;
24305;SDS011;12423;48.768;8.850;2022-07-29T08:02:31;4.70;;;3.58;;
24305;SDS011;12423;48.768;8.850;2022-07-29T08:04:32;6.53;;;3.40;;
24305;SDS011;12423;48.768;8.850;2022-07-29T08:06:34;5.88;;;3.75;;
24305;SDS011;12423;48.768;8.850;2022-07-29T08:08:36;5.68;;;3.80;;
24305;SDS011;12423;48.768;8.850;2022-07-29T08:10:37;6.75;;;4.35;;
24305;SDS011;12423;48.768;8.850;2022-07-29T08:12:53;6.78;;;3.85;;
24305;SDS011;12423;48.768;8.850;2022-07-29T08:14:54;5.07;;;3.25;;
24305;SDS011;12423;48.768;8.850;2022-07-29T08:16:55;5.00;;;3.28;;
24305;SDS011;12423;48.768;8.850;2022-07-29T08:18:56;4.45;;;3.17;;
24305;SDS011;12423;48.768;8.850;2022-07-29T08:20:57;4.65;;;3.50;;
24305;SDS011;12423;48.768;8.850;2022-07-29T08:22:59;7.22;;;3.70;;
24305;SDS011;12423;48.768;8.850;2022-07-29T08:25:00;7.18;;;4.40;;
24305;SDS011;12423;48.768;8.850;2022-07-29T08:27:00;6.20;;;3.67;;
24305;SDS011;12423;48.768;8.850;2022-07-29T08:29:01;8.32;;;3.60;;
24305;SDS011;12423;48.768;8.850;2022-07-29T08:31:02;5.80;;;3.33;;
24305;SDS011;12423;48.768;8.850;2022-07-29T08:33:03;6.18;;;3.63;;
24305;SDS011;12423;48.768;8.850;2022-07-29T08:35:05;7.38;;;3.95;;
24305;SDS011;12423;48.768;8.850;2022-07-29T08:37:06;6.32;;;3.70;;
24305;SDS011;12423;48.768;8.850;2022-07-29T08:39:07;5.38;;;3.63;;
24305;SDS011;12423;48.768;8.850;2022-07-29T08:41:08;5.28;;;3.33;;
24305;SDS011;12423;48.768;8.850;2022-07-29T08:43:09;6.75;;;3.80;;
24305;SDS011;12423;48.768;8.850;2022-07-29T08:45:10;3.95;;;3.15;;
24305;SDS011;12423;48.768;8.850;2022-07-29T08:47:13;6.95;;;3.38;;
24305;SDS011;12423;48.768;8.850;2022-07-29T08:49:15;6.00;;;3.78;;
24305;SDS011;12423;48.768;8.850;2022-07-29T08:51:18;5.22;;;3.63;;
24305;SDS011;12423;48.768;8.850;2022-07-29T08:53:21;5.95;;;4.00;;
24305;SDS011;12423;48.768;8.850;2022-07-29T08:55:24;8.88;;;4.50;;
24305;SDS011;12423;48.768;8.850;2022-07-29T08:57:25;4.35;;;3.35;;
24305;SDS011;12423;48.768;8.850;2022-07-29T08:59:27;6.30;;;3.33;;
24305;SDS011;12423;48.768;8.850;2022-07-29T09:01:32;6.13;;;3.72;;
24305;SDS011;12423;48.768;8.850;2022-07-29T09:03:35;4.78;;;3.42;;
24305;SDS011;12423;48.768;8.850;2022-07-29T09:05:37;6.22;;;3.45;;
24305;SDS011;12423;48.768;8.850;2022-07-29T09:07:42;6.93;;;3.85;;
24305;SDS011;12423;48.768;8.850;2022-07-29T09:09:44;5.22;;;3.17;;
24305;SDS011;12423;48.768;8.850;2022-07-29T09:11:45;6.57;;;3.35;;
24305;SDS011;12423;48.768;8.850;2022-07-29T09:13:47;6.60;;;2.95;;
24305;SDS011;12423;48.768;8.850;2022-07-29T09:15:50;4.55;;;3.38;;
24305;SDS011;12423;48.768;8.850;2022-07-29T09:17:51;9.15;;;3.53;;
24305;SDS011;12423;48.768;8.850;2022-07-29T09:19:52;8.27;;;3.25;;
24305;SDS011;12423;48.768;8.850;2022-07-29T09:22:09;7.82;;;3.30;;
24305;SDS011;12423;48.768;8.850;2022-07-29T09:24:13;6.30;;;3.70;;
24305;SDS011;12423;48.768;8.850;2022-07-29T09:26:14;4.82;;;3.30;;
24305;SDS011;12423;48.768;8.850;2022-07-29T09:28:16;4.68;;;3.40;;
24305;SDS011;12423;48.768;8.850;2022-07-29T09:30:18;6.43;;;3.15;;
24305;SDS011;12423;48.768;8.850;2022-07-29T09:32:19;4.50;;;3.10;;
24305;SDS011;12423;48.768;8.850;2022-07-29T09:34:24;5.43;;;3.45;;
24305;SDS011;12423;48.768;8.850;2022-07-29T09:36:26;4.47;;;2.95;;
24305;SDS011;12423;48.768;8.850;2022-07-29T09:38:27;4.53;;;2.85;;
24305;SDS011;12423;48.768;8.850;2022-07-29T09:40:29;6.18;;;3.38;;
24305;SDS011;12423;48.768;8.850;2022-07-29T09:42:30;5.18;;;3.20;;
24305;SDS011;12423;48.768;8.850;2022-07-29T09:44:43;4.55;;;3.55;;
24305;SDS011;12423;48.768;8.850;2022-07-29T09:46:54;8.47;;;3.47;;
24305;SDS011;12423;48.768;8.850;2022-07-29T09:49:07;4.78;;;3.40;;
24305;SDS011;12423;48.768;8.850;2022-07-29T09:51:19;5.60;;;3.42;;
24305;SDS011;12423;48.768;8.850;2022-07-29T09:53:31;7.78;;;3.70;;
24305;SDS011;12423;48.768;8.850;2022-07-29T09:55:33;7.32;;;3.58;;
24305;SDS011;12423;48.768;8.850;2022-07-29T09:57:47;5.70;;;3.40;;
24305;SDS011;12423;48.768;8.850;2022-07-29T10:02:18;7.00;;;3.38;;
24305;SDS011;12423;48.768;8.850;2022-07-29T10:04:19;6.35;;;3.22;;
24305;SDS011;12423;48.768;8.850;2022-07-29T10:06:20;8.32;;;3.72;;
24305;SDS011;12423;48.768;8.850;2022-07-29T10:08:25;7.35;;;3.42;;
24305;SDS011;12423;48.768;8.850;2022-07-29T10:10:28;5.10;;;3.55;;
24305;SDS011;12423;48.768;8.850;2022-07-29T10:12:34;5.35;;;3.10;;
24305;SDS011;12423;48.768;8.850;2022-07-29T10:14:49;6.28;;;3.25;;
24305;SDS011;12423;48.768;8.850;2022-07-29T10:16:51;7.25;;;3.30;;
24305;SDS011;12423;48.768;8.850;2022-07-29T10:18:52;8.02;;;3.35;;
24305;SDS011;12423;48.768;8.850;2022-07-29T10:20:53;6.05;;;3.35;;
24305;SDS011;12423;48.768;8.850;2022-07-29T10:22:55;6.57;;;3.67;;
24305;SDS011;12423;48.768;8.850;2022-07-29T10:24:56;7.93;;;3.55;;
24305;SDS011;12423;48.768;8.850;2022-07-29T10:26:58;6.63;;;3.88;;
24305;SDS011;12423;48.768;8.850;2022-07-29T10:29:00;11.18;;;3.90;;
24305;SDS011;12423;48.768;8.850;2022-07-29T10:31:06;8.57;;;3.75;;
24305;SDS011;12423;48.768;8.850;2022-07-29T10:35:54;7.22;;;4.30;;
24305;SDS011;12423;48.768;8.850;2022-07-29T10:38:08;7.45;;;4.38;;
24305;SDS011;12423;48.768;8.850;2022-07-29T10:42:45;6.25;;;4.07;;
24305;SDS011;12423;48.768;8.850;2022-07-29T10:44:46;7.90;;;4.70;;
24305;SDS011;12423;48.768;8.850;2022-07-29T10:46:48;8.25;;;4.80;;
24305;SDS011;12423;48.768;8.850;2022-07-29T10:51:14;7.00;;;4.68;;
24305;SDS011;12423;48.768;8.850;2022-07-29T10:53:15;7.50;;;4.60;;
24305;SDS011;12423;48.768;8.850;2022-07-29T10:55:30;6.22;;;3.83;;
24305;SDS011;12423;48.768;8.850;2022-07-29T10:57:40;8.30;;;4.40;;
24305;SDS011;12423;48.768;8.850;2022-07-29T11:09:17;5.43;;;2.70;;
24305;SDS011;12423;48.768;8.850;2022-07-29T11:15:53;7.00;;;3.25;;
24305;SDS011;12423;48.768;8.850;2022-07-29T11:22:41;4.63;;;2.70;;
24305;SDS011;12423;48.768;8.850;2022-07-29T11:24:43;3.45;;;2.63;;
24305;SDS011;12423;48.768;8.850;2022-07-29T11:26:44;4.95;;;2.45;;
24305;SDS011;12423;48.768;8.850;2022-07-29T11:31:33;3.78;;;2.85;;
24305;SDS011;12423;48.768;8.850;2022-07-29T11:33:44;4.28;;;2.35;;
24305;SDS011;12423;48.768;8.850;2022-07-29T11:36:00;4.35;;;2.67;;
24305;SDS011;12423;48.768;8.850;2022-07-29T11:40:23;3.53;;;2.80;;
24305;SDS011;12423;48.768;8.850;2022-07-29T11:44:52;6.35;;;3.78;;
24305;SDS011;12423;48.768;8.850;2022-07-29T11:46:54;6.10;;;3.30;;
24305;SDS011;12423;48.768;8.850;2022-07-29T11:48:56;5.50;;;3.45;;
24305;SDS011;12423;48.768;8.850;2022-07-29T11:50:58;5.43;;;3.03;;
24305;SDS011;12423;48.768;8.850;2022-07-29T11:53:00;5.65;;;3.20;;
24305;SDS011;12423;48.768;8.850;2022-07-29T11:55:05;5.07;;;3.30;;
24305;SDS011;12423;48.768;8.850;2022-07-29T11:57:07;5.32;;;3.00;;
24305;SDS011;12423;48.768;8.850;2022-07-29T11:59:08;5.53;;;3.17;;
24305;SDS011;12423;48.768;8.850;2022-07-29T12:01:13;4.93;;;2.80;;
24305;SDS011;12423;48.768;8.850;2022-07-29T12:03:23;4.10;;;2.75;;
24305;SDS011;12423;48.768;8.850;2022-07-29T12:07:34;7.45;;;3.75;;
24305;SDS011;12423;48.768;8.850;2022-07-29T12:09:35;3.42;;;2.20;;
24305;SDS011;12423;48.768;8.850;2022-07-29T12:11:36;4.95;;;3.08;;
24305;SDS011;12423;48.768;8.850;2022-07-29T12:13:38;3.08;;;2.63;;
24305;SDS011;12423;48.768;8.850;2022-07-29T12:15:40;4.80;;;2.85;;
24305;SDS011;12423;48.768;8.850;2022-07-29T12:17:42;4.38;;;3.17;;
24305;SDS011;12423;48.768;8.850;2022-07-29T12:19:43;5.28;;;3.03;;
24305;SDS011;12423;48.768;8.850;2022-07-29T12:21:48;5.07;;;3.63;;
24305;SDS011;12423;48.768;8.850;2022-07-29T12:23:54;4.57;;;3.10;;
24305;SDS011;12423;48.768;8.850;2022-07-29T12:25:57;6.18;;;3.60;;
24305;SDS011;12423;48.768;8.850;2022-07-29T12:27:59;3.90;;;3.38;;
24305;SDS011;12423;48.768;8.850;2022-07-29T12:30:03;4.75;;;2.92;;
24305;SDS011;12423;48.768;8.850;2022-07-29T12:32:06;4.97;;;3.13;;
24305;SDS011;12423;48.768;8.850;2022-07-29T12:34:07;4.85;;;3.17;;
24305;SDS011;12423;48.768;8.850;2022-07-29T12:36:08;4.00;;;3.25;;
24305;SDS011;12423;48.768;8.850;2022-07-29T12:38:10;4.57;;;3.25;;
24305;SDS011;12423;48.768;8.850;2022-07-29T12:40:13;5.32;;;3.15;;
24305;SDS011;12423;48.768;8.850;2022-07-29T12:42:16;6.50;;;3.00;;
24305;SDS011;12423;48.768;8.850;2022-07-29T12:44:18;6.70;;;3.10;;
24305;SDS011;12423;48.768;8.850;2022-07-29T12:46:19;5.60;;;3.17;;
24305;SDS011;12423;48.768;8.850;2022-07-29T12:48:35;3.67;;;2.45;;
24305;SDS011;12423;48.768;8.850;2022-07-29T12:50:55;3.33;;;2.40;;
24305;SDS011;12423;48.768;8.850;2022-07-29T12:53:08;5.05;;;2.80;;
24305;SDS011;12423;48.768;8.850;2022-07-29T12:55:11;4.53;;;2.85;;
24305;SDS011;12423;48.768;8.850;2022-07-29T12:57:12;4.90;;;2.60;;
24305;SDS011;12423;48.768;8.850;2022-07-29T13:01:21;4.47;;;3.40;;
24305;SDS011;12423;48.768;8.850;2022-07-29T13:03:22;4.80;;;3.60;;
24305;SDS011;12423;48.768;8.850;2022-07-29T13:05:23;6.20;;;3.40;;
24305;SDS011;12423;48.768;8.850;2022-07-29T13:07:25;5.13;;;2.90;;
24305;SDS011;12423;48.768;8.850;2022-07-29T13:09:42;6.70;;;2.80;;
24305;SDS011;12423;48.768;8.850;2022-07-29T13:11:48;4.63;;;3.40;;
24305;SDS011;12423;48.768;8.850;2022-07-29T13:13:51;4.35;;;2.63;;
24305;SDS011;12423;48.768;8.850;2022-07-29T13:16:04;6.70;;;2.97;;
24305;SDS011;12423;48.768;8.850;2022-07-29T13:18:26;3.58;;;2.65;;